sensor_id;sensor_type;location;lat;lon;timestamp;temperature;humidity
52849;DHT22;38714;53.180;5.812;2022-10-16T00:00:52;12.60;99.90
52849;DHT22;38714;53.180;5.812;2022-10-16T00:03:18;12.60;99.90
52849;DHT22;38714;53.180;5.812;2022-10-16T00:05:44;12.50;99.90
52849;DHT22;38714;53.180;5.812;2022-10-16T00:08:11;12.50;99.90
52849;DHT22;38714;53.180;5.812;2022-10-16T00:10:37;12.50;99.90
52849;DHT22;38714;53.180;5.812;2022-10-16T00:13:04;12.60;99.90
52849;DHT22;38714;53.180;5.812;2022-10-16T00:15:32;12.50;99.90
52849;DHT22;38714;53.180;5.812;2022-10-16T00:17:58;12.50;99.90
52849;DHT22;38714;53.180;5.812;2022-10-16T00:20:23;12.50;99.90
52849;DHT22;38714;53.180;5.812;2022-10-16T00:22:49;12.50;99.90
52849;DHT22;38714;53.180;5.812;2022-10-16T00:25:14;12.50;99.90
52849;DHT22;38714;53.180;5.812;2022-10-16T00:27:40;12.50;99.90
52849;DHT22;38714;53.180;5.812;2022-10-16T00:30:06;12.50;99.90
52849;DHT22;38714;53.180;5.812;2022-10-16T00:32:33;12.50;99.90
52849;DHT22;38714;53.180;5.812;2022-10-16T00:34:59;12.50;99.90
52849;DHT22;38714;53.180;5.812;2022-10-16T00:37:25;12.50;99.90
52849;DHT22;38714;53.180;5.812;2022-10-16T00:39:50;12.50;99.90
52849;DHT22;38714;53.180;5.812;2022-10-16T00:42:18;12.50;99.90
52849;DHT22;38714;53.180;5.812;2022-10-16T00:44:50;12.50;99.90
52849;DHT22;38714;53.180;5.812;2022-10-16T00:47:32;12.50;99.90
52849;DHT22;38714;53.180;5.812;2022-10-16T00:50:24;12.50;99.90
52849;DHT22;38714;53.180;5.812;2022-10-16T00:52:48;12.50;99.90
52849;DHT22;38714;53.180;5.812;2022-10-16T00:55:15;12.50;99.90
52849;DHT22;38714;53.180;5.812;2022-10-16T00:57:42;12.50;99.90
52849;DHT22;38714;53.180;5.812;2022-10-16T01:00:10;12.40;99.90
52849;DHT22;38714;53.180;5.812;2022-10-16T01:02:36;12.50;99.90
52849;DHT22;38714;53.180;5.812;2022-10-16T01:05:02;12.50;99.90
52849;DHT22;38714;53.180;5.812;2022-10-16T01:13:03;12.50;99.90
52849;DHT22;38714;53.180;5.812;2022-10-16T01:20:42;12.60;99.90
52849;DHT22;38714;53.180;5.812;2022-10-16T01:28:13;12.70;99.90
52849;DHT22;38714;53.180;5.812;2022-10-16T01:30:40;12.70;99.90
52849;DHT22;38714;53.180;5.812;2022-10-16T01:33:19;12.70;99.90
52849;DHT22;38714;53.180;5.812;2022-10-16T01:35:52;12.70;99.90
52849;DHT22;38714;53.180;5.812;2022-10-16T01:40:54;12.70;99.90
52849;DHT22;38714;53.180;5.812;2022-10-16T01:43:27;12.70;99.90
52849;DHT22;38714;53.180;5.812;2022-10-16T01:45:56;12.70;99.90
52849;DHT22;38714;53.180;5.812;2022-10-16T01:48:23;12.70;99.90
52849;DHT22;38714;53.180;5.812;2022-10-16T01:50:59;12.70;99.90
52849;DHT22;38714;53.180;5.812;2022-10-16T01:53:26;12.80;99.90
52849;DHT22;38714;53.180;5.812;2022-10-16T01:55:54;12.80;99.90
52849;DHT22;38714;53.180;5.812;2022-10-16T01:58:22;12.80;99.90
52849;DHT22;38714;53.180;5.812;2022-10-16T02:00:48;12.80;99.90
52849;DHT22;38714;53.180;5.812;2022-10-16T02:03:17;12.70;99.90
52849;DHT22;38714;53.180;5.812;2022-10-16T02:05:50;12.80;99.90
52849;DHT22;38714;53.180;5.812;2022-10-16T02:08:17;12.70;99.90
52849;DHT22;38714;53.180;5.812;2022-10-16T02:10:43;12.70;99.90
52849;DHT22;38714;53.180;5.812;2022-10-16T02:13:26;12.70;99.90
52849;DHT22;38714;53.180;5.812;2022-10-16T02:15:52;12.70;99.90
52849;DHT22;38714;53.180;5.812;2022-10-16T02:18:17;12.70;99.90
52849;DHT22;38714;53.180;5.812;2022-10-16T02:21:15;12.70;99.90
52849;DHT22;38714;53.180;5.812;2022-10-16T02:23:48;12.70;99.90
52849;DHT22;38714;53.180;5.812;2022-10-16T02:26:20;12.70;99.90
52849;DHT22;38714;53.180;5.812;2022-10-16T02:28:54;12.70;99.90
52849;DHT22;38714;53.180;5.812;2022-10-16T02:31:26;12.70;99.90
52849;DHT22;38714;53.180;5.812;2022-10-16T02:33:55;12.70;99.90
52849;DHT22;38714;53.180;5.812;2022-10-16T02:36:21;12.70;99.90
52849;DHT22;38714;53.180;5.812;2022-10-16T02:38:47;12.70;99.90
52849;DHT22;38714;53.180;5.812;2022-10-16T02:41:14;12.70;99.90
52849;DHT22;38714;53.180;5.812;2022-10-16T02:43:40;12.70;99.90
52849;DHT22;38714;53.180;5.812;2022-10-16T02:46:05;12.60;99.90
52849;DHT22;38714;53.180;5.812;2022-10-16T02:48:31;12.60;99.90
52849;DHT22;38714;53.180;5.812;2022-10-16T02:50:57;12.60;99.90
52849;DHT22;38714;53.180;5.812;2022-10-16T02:53:22;12.70;99.90
52849;DHT22;38714;53.180;5.812;2022-10-16T02:55:48;12.60;99.90
52849;DHT22;38714;53.180;5.812;2022-10-16T02:58:14;12.60;99.90
52849;DHT22;38714;53.180;5.812;2022-10-16T03:00:39;12.60;99.90
52849;DHT22;38714;53.180;5.812;2022-10-16T03:03:05;12.50;99.90
52849;DHT22;38714;53.180;5.812;2022-10-16T03:05:30;12.50;99.90
52849;DHT22;38714;53.180;5.812;2022-10-16T03:07:56;12.50;99.90
52849;DHT22;38714;53.180;5.812;2022-10-16T03:10:21;12.50;99.90
52849;DHT22;38714;53.180;5.812;2022-10-16T03:12:47;12.40;99.90
52849;DHT22;38714;53.180;5.812;2022-10-16T03:15:13;12.50;99.90
52849;DHT22;38714;53.180;5.812;2022-10-16T03:17:38;12.40;99.90
52849;DHT22;38714;53.180;5.812;2022-10-16T03:20:04;12.40;99.90
52849;DHT22;38714;53.180;5.812;2022-10-16T03:22:30;12.40;99.90
52849;DHT22;38714;53.180;5.812;2022-10-16T03:24:55;12.40;99.90
52849;DHT22;38714;53.180;5.812;2022-10-16T03:27:21;12.40;99.90
52849;DHT22;38714;53.180;5.812;2022-10-16T03:29:46;12.40;99.90
52849;DHT22;38714;53.180;5.812;2022-10-16T03:32:12;12.40;99.90
52849;DHT22;38714;53.180;5.812;2022-10-16T03:34:37;12.40;99.90
52849;DHT22;38714;53.180;5.812;2022-10-16T03:37:04;12.40;99.90
52849;DHT22;38714;53.180;5.812;2022-10-16T03:39:29;12.40;99.90
52849;DHT22;38714;53.180;5.812;2022-10-16T03:41:55;12.40;99.90
52849;DHT22;38714;53.180;5.812;2022-10-16T03:44:20;12.50;99.90
52849;DHT22;38714;53.180;5.812;2022-10-16T03:46:46;12.50;99.90
52849;DHT22;38714;53.180;5.812;2022-10-16T03:49:12;12.50;99.90
52849;DHT22;38714;53.180;5.812;2022-10-16T03:51:37;12.50;99.90
52849;DHT22;38714;53.180;5.812;2022-10-16T03:54:03;12.50;99.90
52849;DHT22;38714;53.180;5.812;2022-10-16T03:56:28;12.50;99.90
52849;DHT22;38714;53.180;5.812;2022-10-16T03:58:54;12.50;99.90
52849;DHT22;38714;53.180;5.812;2022-10-16T04:01:20;12.60;99.90
52849;DHT22;38714;53.180;5.812;2022-10-16T04:03:45;12.60;99.90
52849;DHT22;38714;53.180;5.812;2022-10-16T04:06:11;12.60;99.90
52849;DHT22;38714;53.180;5.812;2022-10-16T04:08:36;12.60;99.90
52849;DHT22;38714;53.180;5.812;2022-10-16T04:11:03;12.60;99.90
52849;DHT22;38714;53.180;5.812;2022-10-16T04:13:28;12.60;99.90
52849;DHT22;38714;53.180;5.812;2022-10-16T04:15:54;12.70;99.90
52849;DHT22;38714;53.180;5.812;2022-10-16T04:18:20;12.60;99.90
52849;DHT22;38714;53.180;5.812;2022-10-16T04:20:45;12.60;99.90
52849;DHT22;38714;53.180;5.812;2022-10-16T04:23:11;12.60;99.90
52849;DHT22;38714;53.180;5.812;2022-10-16T04:25:36;12.60;99.90
52849;DHT22;38714;53.180;5.812;2022-10-16T04:28:02;12.60;99.90
52849;DHT22;38714;53.180;5.812;2022-10-16T04:30:28;12.60;99.90
52849;DHT22;38714;53.180;5.812;2022-10-16T04:32:54;12.60;99.90
52849;DHT22;38714;53.180;5.812;2022-10-16T04:35:20;12.60;99.90
52849;DHT22;38714;53.180;5.812;2022-10-16T04:37:46;12.60;99.90
52849;DHT22;38714;53.180;5.812;2022-10-16T04:40:13;12.60;99.90
52849;DHT22;38714;53.180;5.812;2022-10-16T04:42:39;12.60;99.90
52849;DHT22;38714;53.180;5.812;2022-10-16T04:45:06;12.60;99.90
52849;DHT22;38714;53.180;5.812;2022-10-16T04:47:31;12.60;99.90
52849;DHT22;38714;53.180;5.812;2022-10-16T04:49:57;12.60;99.90
52849;DHT22;38714;53.180;5.812;2022-10-16T04:52:27;12.50;99.90
52849;DHT22;38714;53.180;5.812;2022-10-16T04:54:52;12.50;99.90
52849;DHT22;38714;53.180;5.812;2022-10-16T04:57:19;12.50;99.90
52849;DHT22;38714;53.180;5.812;2022-10-16T04:59:44;12.50;99.90
52849;DHT22;38714;53.180;5.812;2022-10-16T05:02:10;12.50;99.90
52849;DHT22;38714;53.180;5.812;2022-10-16T05:04:36;12.50;99.90
52849;DHT22;38714;53.180;5.812;2022-10-16T05:07:01;12.50;99.90
52849;DHT22;38714;53.180;5.812;2022-10-16T05:09:27;12.50;99.90
52849;DHT22;38714;53.180;5.812;2022-10-16T05:11:52;12.50;99.90
52849;DHT22;38714;53.180;5.812;2022-10-16T05:14:18;12.50;99.90
52849;DHT22;38714;53.180;5.812;2022-10-16T05:16:44;12.50;99.90
52849;DHT22;38714;53.180;5.812;2022-10-16T05:19:09;12.50;99.90
52849;DHT22;38714;53.180;5.812;2022-10-16T05:21:35;12.50;99.90
52849;DHT22;38714;53.180;5.812;2022-10-16T05:24:01;12.50;99.90
52849;DHT22;38714;53.180;5.812;2022-10-16T05:26:26;12.50;99.90
52849;DHT22;38714;53.180;5.812;2022-10-16T05:28:52;12.50;99.90
52849;DHT22;38714;53.180;5.812;2022-10-16T05:31:17;12.50;99.90
52849;DHT22;38714;53.180;5.812;2022-10-16T05:33:43;12.50;99.90
52849;DHT22;38714;53.180;5.812;2022-10-16T05:36:09;12.50;99.90
52849;DHT22;38714;53.180;5.812;2022-10-16T05:38:36;12.40;99.90
52849;DHT22;38714;53.180;5.812;2022-10-16T05:41:03;12.50;99.90
52849;DHT22;38714;53.180;5.812;2022-10-16T05:43:30;12.50;99.90
52849;DHT22;38714;53.180;5.812;2022-10-16T05:46:05;12.40;99.90
52849;DHT22;38714;53.180;5.812;2022-10-16T05:48:32;12.40;99.90
52849;DHT22;38714;53.180;5.812;2022-10-16T05:51:06;12.40;99.90
52849;DHT22;38714;53.180;5.812;2022-10-16T05:53:34;12.40;99.90
52849;DHT22;38714;53.180;5.812;2022-10-16T05:56:00;12.40;99.90
52849;DHT22;38714;53.180;5.812;2022-10-16T05:58:29;12.40;99.90
52849;DHT22;38714;53.180;5.812;2022-10-16T06:00:57;12.40;99.90
52849;DHT22;38714;53.180;5.812;2022-10-16T06:03:23;12.40;99.90
52849;DHT22;38714;53.180;5.812;2022-10-16T06:05:49;12.40;99.90
52849;DHT22;38714;53.180;5.812;2022-10-16T06:08:15;12.40;99.90
52849;DHT22;38714;53.180;5.812;2022-10-16T06:10:40;12.40;99.90
52849;DHT22;38714;53.180;5.812;2022-10-16T06:13:06;12.40;99.90
52849;DHT22;38714;53.180;5.812;2022-10-16T06:15:31;12.40;99.90
52849;DHT22;38714;53.180;5.812;2022-10-16T06:17:57;12.40;99.90
52849;DHT22;38714;53.180;5.812;2022-10-16T06:20:22;12.40;99.90
52849;DHT22;38714;53.180;5.812;2022-10-16T06:22:48;12.30;99.90
52849;DHT22;38714;53.180;5.812;2022-10-16T06:25:13;12.30;99.90
52849;DHT22;38714;53.180;5.812;2022-10-16T06:27:40;12.30;99.90
52849;DHT22;38714;53.180;5.812;2022-10-16T06:30:06;12.30;99.90
52849;DHT22;38714;53.180;5.812;2022-10-16T06:32:32;12.30;99.90
52849;DHT22;38714;53.180;5.812;2022-10-16T06:34:58;12.40;99.90
52849;DHT22;38714;53.180;5.812;2022-10-16T06:37:24;12.40;99.90
52849;DHT22;38714;53.180;5.812;2022-10-16T06:39:50;12.40;99.90
52849;DHT22;38714;53.180;5.812;2022-10-16T06:42:18;12.40;99.90
52849;DHT22;38714;53.180;5.812;2022-10-16T06:44:43;12.40;99.90
52849;DHT22;38714;53.180;5.812;2022-10-16T06:47:09;12.50;99.90
52849;DHT22;38714;53.180;5.812;2022-10-16T06:49:34;12.40;99.90
52849;DHT22;38714;53.180;5.812;2022-10-16T06:52:00;12.40;99.90
52849;DHT22;38714;53.180;5.812;2022-10-16T06:54:27;12.40;99.90
52849;DHT22;38714;53.180;5.812;2022-10-16T06:56:52;12.40;99.90
52849;DHT22;38714;53.180;5.812;2022-10-16T06:59:20;12.40;99.90
52849;DHT22;38714;53.180;5.812;2022-10-16T07:01:46;12.40;99.90
52849;DHT22;38714;53.180;5.812;2022-10-16T07:04:11;12.50;99.90
52849;DHT22;38714;53.180;5.812;2022-10-16T07:06:37;12.50;99.90
52849;DHT22;38714;53.180;5.812;2022-10-16T07:09:05;12.50;99.90
52849;DHT22;38714;53.180;5.812;2022-10-16T07:11:31;12.40;99.90
52849;DHT22;38714;53.180;5.812;2022-10-16T07:13:57;12.50;99.90
52849;DHT22;38714;53.180;5.812;2022-10-16T07:16:25;12.50;99.90
52849;DHT22;38714;53.180;5.812;2022-10-16T07:18:51;12.50;99.90
52849;DHT22;38714;53.180;5.812;2022-10-16T07:21:21;12.50;99.90
52849;DHT22;38714;53.180;5.812;2022-10-16T07:23:51;12.50;99.90
52849;DHT22;38714;53.180;5.812;2022-10-16T07:26:17;12.40;99.90
52849;DHT22;38714;53.180;5.812;2022-10-16T07:28:43;12.40;99.90
52849;DHT22;38714;53.180;5.812;2022-10-16T07:31:12;12.50;99.90
52849;DHT22;38714;53.180;5.812;2022-10-16T07:33:39;12.50;99.90
52849;DHT22;38714;53.180;5.812;2022-10-16T07:36:07;12.50;99.90
52849;DHT22;38714;53.180;5.812;2022-10-16T07:38:33;12.60;99.90
52849;DHT22;38714;53.180;5.812;2022-10-16T07:41:07;12.60;99.90
52849;DHT22;38714;53.180;5.812;2022-10-16T07:43:33;12.60;99.90
52849;DHT22;38714;53.180;5.812;2022-10-16T07:45:59;12.60;99.90
52849;DHT22;38714;53.180;5.812;2022-10-16T07:48:27;12.60;99.90
52849;DHT22;38714;53.180;5.812;2022-10-16T07:50:57;12.60;99.90
52849;DHT22;38714;53.180;5.812;2022-10-16T07:53:24;12.60;99.90
52849;DHT22;38714;53.180;5.812;2022-10-16T07:55:49;12.70;99.90
52849;DHT22;38714;53.180;5.812;2022-10-16T07:58:15;12.70;99.90
52849;DHT22;38714;53.180;5.812;2022-10-16T08:00:40;12.80;99.90
52849;DHT22;38714;53.180;5.812;2022-10-16T08:03:06;12.80;99.90
52849;DHT22;38714;53.180;5.812;2022-10-16T08:05:33;12.80;99.90
52849;DHT22;38714;53.180;5.812;2022-10-16T08:07:59;12.80;99.90
52849;DHT22;38714;53.180;5.812;2022-10-16T08:10:26;12.80;99.90
52849;DHT22;38714;53.180;5.812;2022-10-16T08:12:52;12.80;99.90
52849;DHT22;38714;53.180;5.812;2022-10-16T08:15:18;12.90;99.90
52849;DHT22;38714;53.180;5.812;2022-10-16T08:17:44;12.80;99.90
52849;DHT22;38714;53.180;5.812;2022-10-16T08:20:10;12.80;99.90
52849;DHT22;38714;53.180;5.812;2022-10-16T08:22:36;12.90;99.90
52849;DHT22;38714;53.180;5.812;2022-10-16T08:25:02;12.80;99.90
52849;DHT22;38714;53.180;5.812;2022-10-16T08:27:32;12.80;99.90
52849;DHT22;38714;53.180;5.812;2022-10-16T08:29:57;12.90;99.90
52849;DHT22;38714;53.180;5.812;2022-10-16T08:32:23;12.90;99.90
52849;DHT22;38714;53.180;5.812;2022-10-16T08:34:48;13.00;99.90
52849;DHT22;38714;53.180;5.812;2022-10-16T08:37:14;13.00;99.90
52849;DHT22;38714;53.180;5.812;2022-10-16T08:39:40;13.10;99.90
52849;DHT22;38714;53.180;5.812;2022-10-16T08:47:22;13.40;99.90
52849;DHT22;38714;53.180;5.812;2022-10-16T08:50:13;13.40;99.90
52849;DHT22;38714;53.180;5.812;2022-10-16T08:52:41;13.40;99.90
52849;DHT22;38714;53.180;5.812;2022-10-16T08:55:20;13.40;99.90
52849;DHT22;38714;53.180;5.812;2022-10-16T08:57:48;13.40;99.90
52849;DHT22;38714;53.180;5.812;2022-10-16T09:00:14;13.40;99.90
52849;DHT22;38714;53.180;5.812;2022-10-16T09:11:50;13.50;99.90
52849;DHT22;38714;53.180;5.812;2022-10-16T09:17:41;13.70;99.90
52849;DHT22;38714;53.180;5.812;2022-10-16T09:22:38;13.80;99.90
52849;DHT22;38714;53.180;5.812;2022-10-16T09:25:20;13.90;99.90
52849;DHT22;38714;53.180;5.812;2022-10-16T09:27:48;13.90;99.90
52849;DHT22;38714;53.180;5.812;2022-10-16T09:30:19;13.90;99.90
52849;DHT22;38714;53.180;5.812;2022-10-16T09:32:47;13.90;99.90
52849;DHT22;38714;53.180;5.812;2022-10-16T09:35:16;13.90;99.90
52849;DHT22;38714;53.180;5.812;2022-10-16T09:37:45;14.00;99.90
52849;DHT22;38714;53.180;5.812;2022-10-16T09:40:13;14.00;99.90
52849;DHT22;38714;53.180;5.812;2022-10-16T09:42:39;14.00;99.90
52849;DHT22;38714;53.180;5.812;2022-10-16T09:45:05;14.00;99.90
52849;DHT22;38714;53.180;5.812;2022-10-16T09:47:37;14.10;99.90
52849;DHT22;38714;53.180;5.812;2022-10-16T09:50:20;14.10;99.90
52849;DHT22;38714;53.180;5.812;2022-10-16T09:52:47;14.10;99.90
52849;DHT22;38714;53.180;5.812;2022-10-16T09:55:15;14.10;99.90
52849;DHT22;38714;53.180;5.812;2022-10-16T09:57:54;14.20;99.90
52849;DHT22;38714;53.180;5.812;2022-10-16T10:00:20;14.20;99.90
52849;DHT22;38714;53.180;5.812;2022-10-16T10:02:46;14.30;99.90
52849;DHT22;38714;53.180;5.812;2022-10-16T10:05:27;14.40;99.90
52849;DHT22;38714;53.180;5.812;2022-10-16T10:08:02;14.50;99.90
52849;DHT22;38714;53.180;5.812;2022-10-16T10:10:33;14.50;99.90
52849;DHT22;38714;53.180;5.812;2022-10-16T10:13:00;14.50;99.90
52849;DHT22;38714;53.180;5.812;2022-10-16T10:15:32;14.50;99.90
52849;DHT22;38714;53.180;5.812;2022-10-16T10:17:58;14.50;99.90
52849;DHT22;38714;53.180;5.812;2022-10-16T10:20:31;14.50;99.90
52849;DHT22;38714;53.180;5.812;2022-10-16T10:23:00;14.50;99.90
52849;DHT22;38714;53.180;5.812;2022-10-16T10:25:53;14.40;99.90
52849;DHT22;38714;53.180;5.812;2022-10-16T10:28:42;14.40;99.90
52849;DHT22;38714;53.180;5.812;2022-10-16T10:39:00;14.50;99.90
52849;DHT22;38714;53.180;5.812;2022-10-16T10:42:00;14.50;99.90
52849;DHT22;38714;53.180;5.812;2022-10-16T10:53:47;14.60;99.90
52849;DHT22;38714;53.180;5.812;2022-10-16T10:56:23;14.60;99.90
52849;DHT22;38714;53.180;5.812;2022-10-16T10:59:07;14.60;99.90
52849;DHT22;38714;53.180;5.812;2022-10-16T11:04:43;14.60;99.90
52849;DHT22;38714;53.180;5.812;2022-10-16T11:07:38;14.60;99.90
52849;DHT22;38714;53.180;5.812;2022-10-16T11:10:52;14.50;99.90
52849;DHT22;38714;53.180;5.812;2022-10-16T11:13:32;14.50;99.90
52849;DHT22;38714;53.180;5.812;2022-10-16T11:16:02;14.50;99.90
52849;DHT22;38714;53.180;5.812;2022-10-16T11:21:09;14.50;99.90
52849;DHT22;38714;53.180;5.812;2022-10-16T11:23:42;14.50;99.90
52849;DHT22;38714;53.180;5.812;2022-10-16T11:26:32;14.50;99.90
52849;DHT22;38714;53.180;5.812;2022-10-16T11:29:00;14.50;99.90
52849;DHT22;38714;53.180;5.812;2022-10-16T11:31:34;14.60;99.90
52849;DHT22;38714;53.180;5.812;2022-10-16T11:36:42;14.60;99.90
52849;DHT22;38714;53.180;5.812;2022-10-16T11:39:20;14.70;99.90
52849;DHT22;38714;53.180;5.812;2022-10-16T11:41:49;14.70;99.90
52849;DHT22;38714;53.180;5.812;2022-10-16T11:44:36;14.70;99.90
52849;DHT22;38714;53.180;5.812;2022-10-16T11:49:50;14.70;99.90
52849;DHT22;38714;53.180;5.812;2022-10-16T11:52:28;14.70;99.90
52849;DHT22;38714;53.180;5.812;2022-10-16T11:55:15;14.70;99.90
52849;DHT22;38714;53.180;5.812;2022-10-16T11:57:47;14.60;99.90
52849;DHT22;38714;53.180;5.812;2022-10-16T12:00:37;14.70;99.90
52849;DHT22;38714;53.180;5.812;2022-10-16T12:03:20;14.70;99.90
52849;DHT22;38714;53.180;5.812;2022-10-16T12:08:38;14.70;99.90
52849;DHT22;38714;53.180;5.812;2022-10-16T12:11:20;14.70;99.90
52849;DHT22;38714;53.180;5.812;2022-10-16T12:13:47;14.70;99.90
52849;DHT22;38714;53.180;5.812;2022-10-16T12:18:46;14.70;99.90
52849;DHT22;38714;53.180;5.812;2022-10-16T12:21:16;14.60;99.90
52849;DHT22;38714;53.180;5.812;2022-10-16T12:23:53;14.70;99.90
52849;DHT22;38714;53.180;5.812;2022-10-16T12:26:37;14.70;99.90
52849;DHT22;38714;53.180;5.812;2022-10-16T12:29:35;14.60;99.90
52849;DHT22;38714;53.180;5.812;2022-10-16T12:32:04;14.60;99.90
52849;DHT22;38714;53.180;5.812;2022-10-16T12:34:39;14.60;99.90
52849;DHT22;38714;53.180;5.812;2022-10-16T12:37:13;14.70;99.90
52849;DHT22;38714;53.180;5.812;2022-10-16T12:39:39;14.70;99.90
52849;DHT22;38714;53.180;5.812;2022-10-16T12:44:52;14.70;99.90
52849;DHT22;38714;53.180;5.812;2022-10-16T12:47:37;14.70;99.90
52849;DHT22;38714;53.180;5.812;2022-10-16T12:50:03;14.70;99.90
52849;DHT22;38714;53.180;5.812;2022-10-16T12:52:48;14.60;99.90
52849;DHT22;38714;53.180;5.812;2022-10-16T12:55:19;14.60;99.90
52849;DHT22;38714;53.180;5.812;2022-10-16T13:00:45;14.50;99.90
52849;DHT22;38714;53.180;5.812;2022-10-16T13:03:44;14.50;99.90
52849;DHT22;38714;53.180;5.812;2022-10-16T13:06:19;14.50;99.90
52849;DHT22;38714;53.180;5.812;2022-10-16T13:20:22;14.40;99.90
52849;DHT22;38714;53.180;5.812;2022-10-16T13:23:15;14.40;99.90
52849;DHT22;38714;53.180;5.812;2022-10-16T13:28:32;14.40;99.90
52849;DHT22;38714;53.180;5.812;2022-10-16T13:30:59;14.40;99.90
52849;DHT22;38714;53.180;5.812;2022-10-16T13:35:56;14.30;99.90
52849;DHT22;38714;53.180;5.812;2022-10-16T13:38:24;14.40;99.90
52849;DHT22;38714;53.180;5.812;2022-10-16T13:41:00;14.30;99.90
52849;DHT22;38714;53.180;5.812;2022-10-16T13:46:15;14.30;99.90
52849;DHT22;38714;53.180;5.812;2022-10-16T13:48:42;14.30;99.90
52849;DHT22;38714;53.180;5.812;2022-10-16T13:51:16;14.30;99.90
52849;DHT22;38714;53.180;5.812;2022-10-16T13:53:43;14.30;99.90
52849;DHT22;38714;53.180;5.812;2022-10-16T13:56:14;14.30;99.90
52849;DHT22;38714;53.180;5.812;2022-10-16T13:58:40;14.30;99.90
52849;DHT22;38714;53.180;5.812;2022-10-16T14:03:42;14.20;99.90
52849;DHT22;38714;53.180;5.812;2022-10-16T14:06:14;14.20;99.90
52849;DHT22;38714;53.180;5.812;2022-10-16T14:09:05;14.20;99.90
52849;DHT22;38714;53.180;5.812;2022-10-16T14:11:32;14.20;99.90
52849;DHT22;38714;53.180;5.812;2022-10-16T14:13:58;14.30;99.90
52849;DHT22;38714;53.180;5.812;2022-10-16T14:16:30;14.30;99.90
52849;DHT22;38714;53.180;5.812;2022-10-16T14:18:57;14.20;99.90
52849;DHT22;38714;53.180;5.812;2022-10-16T14:21:24;14.20;99.90
52849;DHT22;38714;53.180;5.812;2022-10-16T14:23:50;14.30;99.90
52849;DHT22;38714;53.180;5.812;2022-10-16T14:26:19;14.20;99.90
52849;DHT22;38714;53.180;5.812;2022-10-16T14:28:46;14.20;99.90
52849;DHT22;38714;53.180;5.812;2022-10-16T14:31:30;14.20;99.90
52849;DHT22;38714;53.180;5.812;2022-10-16T14:33:56;14.20;99.90
52849;DHT22;38714;53.180;5.812;2022-10-16T14:36:22;14.20;99.90
52849;DHT22;38714;53.180;5.812;2022-10-16T14:39:03;14.20;99.90
52849;DHT22;38714;53.180;5.812;2022-10-16T14:41:31;14.20;99.90
52849;DHT22;38714;53.180;5.812;2022-10-16T14:44:02;14.20;99.90
52849;DHT22;38714;53.180;5.812;2022-10-16T14:46:39;14.10;99.90
52849;DHT22;38714;53.180;5.812;2022-10-16T14:51:38;14.10;99.90
52849;DHT22;38714;53.180;5.812;2022-10-16T14:54:08;14.00;99.90
52849;DHT22;38714;53.180;5.812;2022-10-16T14:56:55;14.00;99.90
52849;DHT22;38714;53.180;5.812;2022-10-16T14:59:35;14.00;99.90
52849;DHT22;38714;53.180;5.812;2022-10-16T15:02:50;14.00;99.90
52849;DHT22;38714;53.180;5.812;2022-10-16T15:05:16;13.90;99.90
52849;DHT22;38714;53.180;5.812;2022-10-16T15:07:42;13.90;99.90
52849;DHT22;38714;53.180;5.812;2022-10-16T15:10:09;13.90;99.90
52849;DHT22;38714;53.180;5.812;2022-10-16T15:12:35;13.80;99.90
52849;DHT22;38714;53.180;5.812;2022-10-16T15:15:01;13.80;99.90
52849;DHT22;38714;53.180;5.812;2022-10-16T15:17:26;13.80;99.90
52849;DHT22;38714;53.180;5.812;2022-10-16T15:19:52;13.80;99.90
52849;DHT22;38714;53.180;5.812;2022-10-16T15:22:17;13.80;99.90
52849;DHT22;38714;53.180;5.812;2022-10-16T15:24:43;13.80;99.90
52849;DHT22;38714;53.180;5.812;2022-10-16T15:27:09;13.80;99.90
52849;DHT22;38714;53.180;5.812;2022-10-16T15:29:34;13.80;99.90
52849;DHT22;38714;53.180;5.812;2022-10-16T15:32:00;13.70;99.90
52849;DHT22;38714;53.180;5.812;2022-10-16T15:34:25;13.70;99.90
52849;DHT22;38714;53.180;5.812;2022-10-16T15:36:51;13.70;99.90
52849;DHT22;38714;53.180;5.812;2022-10-16T15:39:18;13.60;99.90
52849;DHT22;38714;53.180;5.812;2022-10-16T15:41:46;13.60;99.90
52849;DHT22;38714;53.180;5.812;2022-10-16T15:44:20;13.60;99.90
52849;DHT22;38714;53.180;5.812;2022-10-16T15:46:48;13.60;99.90
52849;DHT22;38714;53.180;5.812;2022-10-16T15:49:14;13.60;99.90
52849;DHT22;38714;53.180;5.812;2022-10-16T15:51:41;13.50;99.90
52849;DHT22;38714;53.180;5.812;2022-10-16T15:54:07;13.50;99.90
52849;DHT22;38714;53.180;5.812;2022-10-16T15:56:33;13.50;99.90
52849;DHT22;38714;53.180;5.812;2022-10-16T15:58:59;13.40;99.90
52849;DHT22;38714;53.180;5.812;2022-10-16T16:01:31;13.40;99.90
52849;DHT22;38714;53.180;5.812;2022-10-16T16:04:00;13.40;99.90
52849;DHT22;38714;53.180;5.812;2022-10-16T16:06:26;13.30;99.90
52849;DHT22;38714;53.180;5.812;2022-10-16T16:08:52;13.20;99.90
52849;DHT22;38714;53.180;5.812;2022-10-16T16:11:18;13.20;99.90
52849;DHT22;38714;53.180;5.812;2022-10-16T16:13:44;13.20;99.90
52849;DHT22;38714;53.180;5.812;2022-10-16T16:16:15;13.10;99.90
52849;DHT22;38714;53.180;5.812;2022-10-16T16:18:42;13.10;99.90
52849;DHT22;38714;53.180;5.812;2022-10-16T16:21:10;13.10;99.90
52849;DHT22;38714;53.180;5.812;2022-10-16T16:23:36;13.00;99.90
52849;DHT22;38714;53.180;5.812;2022-10-16T16:28:52;12.90;99.90
52849;DHT22;38714;53.180;5.812;2022-10-16T16:31:18;12.90;99.90
52849;DHT22;38714;53.180;5.812;2022-10-16T16:33:43;12.90;99.90
52849;DHT22;38714;53.180;5.812;2022-10-16T16:36:09;12.80;99.90
52849;DHT22;38714;53.180;5.812;2022-10-16T16:38:35;12.80;99.90
52849;DHT22;38714;53.180;5.812;2022-10-16T16:41:11;12.80;99.90
52849;DHT22;38714;53.180;5.812;2022-10-16T16:43:37;12.70;99.90
52849;DHT22;38714;53.180;5.812;2022-10-16T16:46:02;12.70;99.90
52849;DHT22;38714;53.180;5.812;2022-10-16T16:48:28;12.70;99.90
52849;DHT22;38714;53.180;5.812;2022-10-16T16:50:54;12.60;99.90
52849;DHT22;38714;53.180;5.812;2022-10-16T16:53:19;12.60;99.90
52849;DHT22;38714;53.180;5.812;2022-10-16T16:55:45;12.60;99.90
52849;DHT22;38714;53.180;5.812;2022-10-16T16:58:11;12.50;99.90
52849;DHT22;38714;53.180;5.812;2022-10-16T17:00:36;12.50;99.90
52849;DHT22;38714;53.180;5.812;2022-10-16T17:03:02;12.50;99.90
52849;DHT22;38714;53.180;5.812;2022-10-16T17:05:28;12.50;99.90
52849;DHT22;38714;53.180;5.812;2022-10-16T17:07:53;12.40;99.90
52849;DHT22;38714;53.180;5.812;2022-10-16T17:10:19;12.40;99.90
52849;DHT22;38714;53.180;5.812;2022-10-16T17:12:45;12.30;99.90
52849;DHT22;38714;53.180;5.812;2022-10-16T17:15:10;12.30;99.90
52849;DHT22;38714;53.180;5.812;2022-10-16T17:17:36;12.30;99.90
52849;DHT22;38714;53.180;5.812;2022-10-16T17:20:01;12.30;99.90
52849;DHT22;38714;53.180;5.812;2022-10-16T17:22:27;12.30;99.90
52849;DHT22;38714;53.180;5.812;2022-10-16T17:24:53;12.30;99.90
52849;DHT22;38714;53.180;5.812;2022-10-16T17:27:19;12.30;99.90